Rock Glen, Pennsylvania
Current Conditions -  °F | °C
As of 4:35 PM on Saturday 22 Nov 2014 (Local Time) from KHZL Reporting Station
Overcast Overcast  
Wind Chill: 34°   Ceiling: 2300
Heat Index: 34°   Visibility: 10mi
Dew Point: 18°   Wind: 0mph
Humidity: 52%   Direction: NA
Pressure: 30.23"   Gusts: NA
Location:  40.97°N, 76.18°W
Report Text: KHZL 222135Z AUTO 00000KT 10SM OVC023 01/M08 A3023 RMK AO2
Loading
Personal Weather Stations






























Interactive Weather Map New forecast layout! Learn more

10-Day Weather Forecast

Advertisements
Track Severe Weather on mobile